createdAt,value
2019-06-15T00:02:00.034Z,55.00
2019-06-15T00:04:28.294Z,55.00
2019-06-15T00:06:56.555Z,55.00
2019-06-15T00:09:24.826Z,54.90
2019-06-15T00:11:53.159Z,54.90
2019-06-15T00:14:21.447Z,54.90
2019-06-15T00:16:49.803Z,54.90
2019-06-15T00:19:18.067Z,55.00
2019-06-15T00:21:46.327Z,55.00
2019-06-15T00:24:14.592Z,54.90
2019-06-15T00:26:42.855Z,54.90
2019-06-15T00:29:12.826Z,54.90
2019-06-15T00:31:41.671Z,54.90
2019-06-15T00:34:09.933Z,54.90
2019-06-15T00:36:38.186Z,55.00
2019-06-15T00:39:06.929Z,54.90
2019-06-15T00:41:35.352Z,54.90
2019-06-15T00:44:03.620Z,54.90
2019-06-15T00:46:32.051Z,54.80
2019-06-15T00:49:00.334Z,54.80
2019-06-15T00:51:29.154Z,54.90
2019-06-15T00:53:57.417Z,54.80
2019-06-15T00:56:25.683Z,54.70
2019-06-15T00:58:54.511Z,54.70
2019-06-15T01:01:22.783Z,54.70
2019-06-15T01:03:52.683Z,54.70
2019-06-15T01:06:21.018Z,54.80
2019-06-15T01:08:49.274Z,54.80
2019-06-15T01:11:17.539Z,54.90
2019-06-15T01:13:45.807Z,54.80
2019-06-15T01:16:14.099Z,54.80
2019-06-15T01:18:42.363Z,54.70
2019-06-15T01:21:10.630Z,54.70
2019-06-15T01:23:38.883Z,54.70
2019-06-15T01:26:07.155Z,54.70
2019-06-15T01:28:35.411Z,54.60
2019-06-15T01:31:03.679Z,54.60
2019-06-15T01:33:31.943Z,54.60
2019-06-15T01:36:00.279Z,54.70
2019-06-15T01:38:28.535Z,54.70
2019-06-15T01:40:56.951Z,54.70
2019-06-15T01:43:25.204Z,54.70
2019-06-15T01:45:53.471Z,54.80
2019-06-15T01:48:21.730Z,54.80
2019-06-15T01:50:50.018Z,54.80
2019-06-15T01:53:18.290Z,54.70
2019-06-15T01:55:46.550Z,54.70
2019-06-15T01:58:14.827Z,54.70
2019-06-15T02:00:43.084Z,54.60
2019-06-15T02:03:11.347Z,54.60
2019-06-15T02:05:40.175Z,54.70
2019-06-15T02:08:08.687Z,54.70
2019-06-15T02:10:36.967Z,54.50
2019-06-15T02:13:06.610Z,54.50
2019-06-15T02:15:34.866Z,54.60
2019-06-15T02:18:03.159Z,54.70
2019-06-15T02:20:31.406Z,54.70
2019-06-15T02:22:59.671Z,54.80
2019-06-15T02:25:35.976Z,54.70
2019-06-15T02:27:58.685Z,54.70
2019-06-15T02:30:28.277Z,54.60
2019-06-15T02:32:57.274Z,54.70
2019-06-15T02:35:25.531Z,54.60
2019-06-15T02:37:54.162Z,54.60
2019-06-15T02:40:22.790Z,54.60
2019-06-15T02:42:51.060Z,54.60
2019-06-15T02:45:19.595Z,54.50
2019-06-15T02:47:47.880Z,54.50
2019-06-15T02:50:16.882Z,54.70
2019-06-15T02:52:45.161Z,54.60
2019-06-15T02:55:13.414Z,54.60
2019-06-15T02:57:41.695Z,54.70
2019-06-15T03:00:10.799Z,54.80
2019-06-15T03:02:39.063Z,54.70
2019-06-15T03:05:07.664Z,54.70
2019-06-15T03:07:35.919Z,54.70
2019-06-15T03:10:07.838Z,54.60
2019-06-15T03:12:36.634Z,54.70
2019-06-15T03:15:06.681Z,54.60
2019-06-15T03:17:34.935Z,54.50
2019-06-15T03:20:05.040Z,54.50
2019-06-15T03:22:33.290Z,54.50
2019-06-15T03:25:01.575Z,54.60
2019-06-15T03:27:29.899Z,54.60
2019-06-15T03:29:59.435Z,54.60
2019-06-15T03:32:28.972Z,54.70
2019-06-15T03:34:57.239Z,54.70
2019-06-15T03:37:25.576Z,54.70
2019-06-15T03:39:53.835Z,54.60
2019-06-15T03:42:22.087Z,54.70
2019-06-15T03:44:50.613Z,54.70
2019-06-15T03:47:18.947Z,54.50
2019-06-15T03:49:47.212Z,54.60
2019-06-15T03:52:16.855Z,54.50
2019-06-15T03:54:45.193Z,54.50
2019-06-15T03:57:13.448Z,54.50
2019-06-15T03:59:41.712Z,54.50
2019-06-15T04:02:10.051Z,54.60
2019-06-15T04:04:38.387Z,54.70
2019-06-15T04:07:06.651Z,55.30
2019-06-15T04:09:34.911Z,54.70
2019-06-15T04:12:03.179Z,54.70
2019-06-15T04:14:31.430Z,54.70
2019-06-15T04:16:59.699Z,54.60
2019-06-15T04:19:27.955Z,54.60
2019-06-15T04:21:56.223Z,55.20
2019-06-15T04:24:24.478Z,54.60
2019-06-15T04:26:52.742Z,54.50
2019-06-15T04:29:21.014Z,54.50
2019-06-15T04:31:49.284Z,54.50
2019-06-15T04:34:17.545Z,54.50
2019-06-15T04:36:45.807Z,54.50
2019-06-15T04:39:14.070Z,54.60
2019-06-15T04:41:42.334Z,54.70
2019-06-15T04:44:10.590Z,55.00
2019-06-15T04:46:38.855Z,54.70
2019-06-15T04:49:07.120Z,54.70
2019-06-15T04:51:35.378Z,54.60
2019-06-15T04:54:03.651Z,54.60
2019-06-15T04:56:31.925Z,55.20
2019-06-15T04:59:00.237Z,54.60
2019-06-15T05:01:28.603Z,54.60
2019-06-15T05:03:56.901Z,54.60
2019-06-15T05:06:25.190Z,54.60
2019-06-15T05:08:53.459Z,54.60
2019-06-15T05:11:21.721Z,54.60
2019-06-15T05:13:50.080Z,54.60
2019-06-15T05:16:18.343Z,54.60
2019-06-15T05:18:46.619Z,54.60
2019-06-15T05:21:14.887Z,54.70
2019-06-15T05:23:43.157Z,54.70
2019-06-15T05:26:11.404Z,54.60
2019-06-15T05:28:39.670Z,54.60
2019-06-15T05:31:07.923Z,54.70
2019-06-15T05:33:36.195Z,54.60
2019-06-15T05:36:04.618Z,54.60
2019-06-15T05:38:32.887Z,54.60
2019-06-15T05:41:01.158Z,54.70
2019-06-15T05:43:29.506Z,54.60
2019-06-15T05:45:57.840Z,54.60
2019-06-15T05:48:26.177Z,54.60
2019-06-15T05:50:54.433Z,54.70
2019-06-15T05:53:22.699Z,54.70
2019-06-15T05:55:50.967Z,54.70
2019-06-15T05:58:19.330Z,54.70
2019-06-15T06:00:47.684Z,54.70
2019-06-15T06:03:15.948Z,54.60
2019-06-15T06:05:44.216Z,54.70
2019-06-15T06:08:12.504Z,54.80
2019-06-15T06:10:40.819Z,54.70
2019-06-15T06:13:09.070Z,54.60
2019-06-15T06:15:37.365Z,54.60
2019-06-15T06:18:05.684Z,54.60
2019-06-15T06:20:33.947Z,54.70
2019-06-15T06:23:02.231Z,54.70
2019-06-15T06:25:31.067Z,54.80
2019-06-15T06:27:59.356Z,54.80
2019-06-15T06:30:30.316Z,54.80
2019-06-15T06:32:57.663Z,54.90
2019-06-15T06:35:26.009Z,54.80
2019-06-15T06:37:54.276Z,54.80
2019-06-15T06:40:23.110Z,54.70
2019-06-15T06:42:51.648Z,54.80
2019-06-15T06:45:19.910Z,54.80
2019-06-15T06:47:49.541Z,54.80
2019-06-15T06:50:18.019Z,54.90
2019-06-15T06:52:46.442Z,54.90
2019-06-15T06:55:14.710Z,55.20
2019-06-15T06:57:52.222Z,55.40
2019-06-15T07:00:14.603Z,55.60
2019-06-15T07:02:42.875Z,56.60
2019-06-15T07:05:11.139Z,56.10
2019-06-15T07:07:39.390Z,56.10
2019-06-15T07:10:08.099Z,56.40
2019-06-15T07:12:36.422Z,56.10
2019-06-15T07:15:05.349Z,56.10
2019-06-15T07:17:33.645Z,55.90
2019-06-15T07:20:02.190Z,55.90
2019-06-15T07:22:30.533Z,55.80
2019-06-15T07:24:58.829Z,55.80
2019-06-15T07:27:27.094Z,55.80
2019-06-15T07:29:55.459Z,55.60
2019-06-15T07:32:23.774Z,55.50
2019-06-15T07:34:52.031Z,55.30
2019-06-15T07:37:20.300Z,55.70
2019-06-15T07:39:48.555Z,56.60
2019-06-15T07:42:16.836Z,56.10
2019-06-15T07:44:45.159Z,56.20
2019-06-15T07:47:13.422Z,56.30
2019-06-15T07:49:41.929Z,56.00
2019-06-15T07:52:10.203Z,56.10
2019-06-15T07:54:38.459Z,56.20
2019-06-15T07:57:06.731Z,55.90
2019-06-15T07:59:34.998Z,56.10
2019-06-15T08:02:03.265Z,56.10
2019-06-15T08:04:31.518Z,56.00
2019-06-15T08:06:59.827Z,55.70
2019-06-15T08:09:28.544Z,55.70
2019-06-15T08:11:56.831Z,56.50
2019-06-15T08:14:25.400Z,55.90
2019-06-15T08:16:53.850Z,55.90
2019-06-15T08:19:22.128Z,56.00
2019-06-15T08:21:50.714Z,55.90
2019-06-15T08:24:20.451Z,55.80
2019-06-15T08:26:49.028Z,56.00
2019-06-15T08:29:17.298Z,56.60
2019-06-15T08:31:45.566Z,56.20
2019-06-15T08:34:13.906Z,56.70
2019-06-15T08:36:42.160Z,56.40
2019-06-15T08:39:10.510Z,56.40
2019-06-15T08:41:39.092Z,56.50
2019-06-15T08:44:07.435Z,56.90
2019-06-15T08:46:35.690Z,56.90
2019-06-15T08:49:03.954Z,56.70
2019-06-15T08:51:32.218Z,56.40
2019-06-15T08:54:00.502Z,57.00
2019-06-15T08:56:28.767Z,56.40
2019-06-15T08:58:57.030Z,56.50
2019-06-15T09:01:25.306Z,56.30
2019-06-15T09:03:53.582Z,56.60
2019-06-15T09:06:21.842Z,56.30
2019-06-15T09:08:50.115Z,56.40
2019-06-15T09:11:18.363Z,56.60
2019-06-15T09:13:46.971Z,56.70
2019-06-15T09:16:15.238Z,57.60
2019-06-15T09:18:43.554Z,57.10
2019-06-15T09:21:11.820Z,57.10
2019-06-15T09:23:40.079Z,57.10
2019-06-15T09:26:08.359Z,57.20
2019-06-15T09:28:36.643Z,57.10
2019-06-15T09:31:04.962Z,57.30
2019-06-15T09:33:33.219Z,57.20
2019-06-15T09:36:01.487Z,57.20
2019-06-15T09:38:29.747Z,58.10
2019-06-15T09:40:58.017Z,57.80
2019-06-15T09:43:26.270Z,57.40
2019-06-15T09:45:54.543Z,57.20
2019-06-15T09:48:22.796Z,57.10
2019-06-15T09:50:51.058Z,57.00
2019-06-15T09:53:19.312Z,57.00
2019-06-15T09:55:47.851Z,56.90
2019-06-15T09:58:16.106Z,56.70
2019-06-15T10:00:44.617Z,57.00
2019-06-15T10:03:12.873Z,56.80
2019-06-15T10:05:41.221Z,56.80
2019-06-15T10:08:09.475Z,56.60
2019-06-15T10:10:37.750Z,56.50
2019-06-15T10:13:05.998Z,56.70
2019-06-15T10:15:34.262Z,56.80
2019-06-15T10:18:02.543Z,57.00
2019-06-15T10:20:30.933Z,57.00
2019-06-15T10:22:59.186Z,57.00
2019-06-15T10:25:27.462Z,56.80
2019-06-15T10:27:55.725Z,56.80
2019-06-15T10:30:24.017Z,56.70
2019-06-15T10:32:52.354Z,56.80
2019-06-15T10:35:20.612Z,56.80
2019-06-15T10:37:48.874Z,56.70
2019-06-15T10:40:17.135Z,56.90
2019-06-15T10:42:45.396Z,56.90
2019-06-15T10:45:14.127Z,57.00
2019-06-15T10:47:42.401Z,57.00
2019-06-15T10:50:10.661Z,56.90
2019-06-15T10:52:38.922Z,57.10
2019-06-15T10:55:07.349Z,57.00
2019-06-15T10:57:35.611Z,57.10
2019-06-15T11:00:10.163Z,56.90
2019-06-15T11:02:38.437Z,56.80
2019-06-15T11:05:07.767Z,56.90
2019-06-15T11:07:36.343Z,57.00
2019-06-15T11:10:09.503Z,56.90
2019-06-15T11:12:46.503Z,57.00
2019-06-15T11:15:08.423Z,57.00
2019-06-15T11:17:36.700Z,57.00
2019-06-15T11:20:06.305Z,57.20
2019-06-15T11:22:34.638Z,57.20
2019-06-15T11:25:03.779Z,57.40
2019-06-15T11:27:32.051Z,57.30
2019-06-15T11:30:12.873Z,57.30
2019-06-15T11:32:31.686Z,57.00
2019-06-15T11:34:59.946Z,57.00
2019-06-15T11:37:28.210Z,57.00
2019-06-15T11:39:56.475Z,57.00
2019-06-15T11:42:24.771Z,57.00
2019-06-15T11:44:53.109Z,56.90
2019-06-15T11:47:21.368Z,56.80
2019-06-15T11:49:49.635Z,56.80
2019-06-15T11:52:19.264Z,56.70
2019-06-15T11:54:47.530Z,56.80
2019-06-15T11:57:15.796Z,56.70
2019-06-15T11:59:44.334Z,56.80
2019-06-15T12:02:12.604Z,56.80
2019-06-15T12:04:40.868Z,56.80
2019-06-15T12:07:09.123Z,56.80
2019-06-15T12:09:37.395Z,56.80
2019-06-15T12:12:05.664Z,56.70
2019-06-15T12:14:33.954Z,56.80
2019-06-15T12:17:02.272Z,56.70
2019-06-15T12:19:30.535Z,56.60
2019-06-15T12:21:58.794Z,56.70
2019-06-15T12:24:27.087Z,56.60
2019-06-15T12:26:55.392Z,56.90
2019-06-15T12:29:23.660Z,56.70
2019-06-15T12:31:51.915Z,57.00
2019-06-15T12:34:21.203Z,57.10
2019-06-15T12:36:49.653Z,57.10
2019-06-15T12:39:17.999Z,57.80
2019-06-15T12:41:46.322Z,57.90
2019-06-15T12:44:14.599Z,57.70
2019-06-15T12:46:42.860Z,57.70
2019-06-15T12:49:11.158Z,58.20
2019-06-15T12:51:40.830Z,57.60
2019-06-15T12:54:09.354Z,57.50
2019-06-15T12:56:37.636Z,57.20
2019-06-15T12:59:05.895Z,57.20
2019-06-15T13:01:34.171Z,57.10
2019-06-15T13:04:02.432Z,57.20
2019-06-15T13:06:30.694Z,57.50
2019-06-15T13:08:58.963Z,57.50
2019-06-15T13:11:27.234Z,57.40
2019-06-15T13:13:55.492Z,57.40
2019-06-15T13:16:38.323Z,57.30
2019-06-15T13:18:53.762Z,57.30
2019-06-15T13:21:22.030Z,57.30
2019-06-15T13:23:50.282Z,57.30
2019-06-15T13:26:18.581Z,57.30
2019-06-15T13:28:46.914Z,57.30
2019-06-15T13:31:18.520Z,57.20
2019-06-15T13:33:45.158Z,57.20
2019-06-15T13:36:13.430Z,57.20
2019-06-15T13:38:41.693Z,57.20
2019-06-15T13:41:09.951Z,57.10
2019-06-15T13:43:38.214Z,57.10
2019-06-15T13:46:06.487Z,57.20
2019-06-15T13:48:34.765Z,57.40
2019-06-15T13:51:03.094Z,56.60
2019-06-15T13:53:31.346Z,57.10
2019-06-15T13:55:59.619Z,57.10
2019-06-15T13:58:27.879Z,57.00
2019-06-15T14:00:56.719Z,56.90
2019-06-15T14:03:24.980Z,57.10
2019-06-15T14:05:53.243Z,57.30
2019-06-15T14:08:21.506Z,57.60
2019-06-15T14:10:49.774Z,58.00
2019-06-15T14:13:18.040Z,57.90
2019-06-15T14:15:46.304Z,57.70
2019-06-15T14:18:14.642Z,58.00
2019-06-15T14:20:42.899Z,58.10
2019-06-15T14:23:11.163Z,58.00
2019-06-15T14:25:39.469Z,57.80
2019-06-15T14:28:07.762Z,57.80
2019-06-15T14:30:36.023Z,57.70
2019-06-15T14:33:04.294Z,57.60
2019-06-15T14:35:32.546Z,57.60
2019-06-15T14:38:01.106Z,57.50
2019-06-15T14:40:29.445Z,57.50
2019-06-15T14:42:57.709Z,57.80
2019-06-15T14:45:25.962Z,58.50
2019-06-15T14:47:54.225Z,57.60
2019-06-15T14:50:22.489Z,57.40
2019-06-15T14:52:51.067Z,57.50
2019-06-15T14:55:19.328Z,57.40
2019-06-15T14:57:47.595Z,57.40
2019-06-15T15:00:16.739Z,57.50
2019-06-15T15:02:46.858Z,58.20
2019-06-15T15:05:17.932Z,57.50
2019-06-15T15:07:46.918Z,57.40
2019-06-15T15:10:16.313Z,57.40
2019-06-15T15:12:46.062Z,57.40
2019-06-15T15:15:16.899Z,57.30
2019-06-15T15:17:46.038Z,57.30
2019-06-15T15:20:17.143Z,57.40
2019-06-15T15:22:46.535Z,57.50
2019-06-15T15:25:16.712Z,57.60
2019-06-15T15:27:46.777Z,57.50
2019-06-15T15:30:17.674Z,57.60
2019-06-15T15:32:46.756Z,57.70
2019-06-15T15:35:16.450Z,57.60
2019-06-15T15:37:46.325Z,57.50
2019-06-15T15:40:16.629Z,57.40
2019-06-15T15:42:44.735Z,57.50
2019-06-15T15:45:13.008Z,58.40
2019-06-15T15:47:41.267Z,59.30
2019-06-15T15:50:09.859Z,59.60
2019-06-15T15:52:38.118Z,59.10
2019-06-15T15:55:06.822Z,58.40
2019-06-15T15:57:36.258Z,60.00
2019-06-15T16:00:07.384Z,60.20
2019-06-15T16:02:47.677Z,59.20
2019-06-15T16:05:06.265Z,59.30
2019-06-15T16:07:36.448Z,58.60
2019-06-15T16:10:06.262Z,58.50
2019-06-15T16:12:36.203Z,58.70
2019-06-15T16:15:07.266Z,58.10
2019-06-15T16:17:37.210Z,57.90
2019-06-15T16:20:06.999Z,57.90
2019-06-15T16:22:36.963Z,57.50
2019-06-15T16:25:06.893Z,57.60
2019-06-15T16:27:37.073Z,57.40
2019-06-15T16:30:07.062Z,57.50
2019-06-15T16:32:37.243Z,57.60
2019-06-15T16:35:06.262Z,57.70
2019-06-15T16:37:34.525Z,57.80
2019-06-15T16:40:03.760Z,57.70
2019-06-15T16:42:32.023Z,57.70
2019-06-15T16:45:00.299Z,58.20
2019-06-15T16:47:28.563Z,59.10
2019-06-15T16:49:56.883Z,60.30
2019-06-15T16:52:26.920Z,60.00
2019-06-15T16:54:55.400Z,59.60
2019-06-15T16:57:23.671Z,66.40
2019-06-15T16:59:51.927Z,61.20
2019-06-15T17:02:20.201Z,60.00
2019-06-15T17:04:48.459Z,58.70
2019-06-15T17:07:17.438Z,58.40
2019-06-15T17:09:46.496Z,58.50
2019-06-15T17:12:16.959Z,60.60
2019-06-15T17:14:44.901Z,60.00
2019-06-15T17:17:13.170Z,59.90
2019-06-15T17:19:41.431Z,59.70
2019-06-15T17:22:18.765Z,62.40
2019-06-15T17:24:39.683Z,59.90
2019-06-15T17:27:07.954Z,58.60
2019-06-15T17:29:36.215Z,58.40
2019-06-15T17:32:06.351Z,59.10
2019-06-15T17:34:36.382Z,58.40
2019-06-15T17:37:06.696Z,58.10
2019-06-15T17:39:37.050Z,57.80
2019-06-15T17:42:06.894Z,57.80
2019-06-15T17:44:36.866Z,57.80
2019-06-15T17:47:07.091Z,57.80
2019-06-15T17:49:36.968Z,57.70
2019-06-15T17:52:06.563Z,57.40
2019-06-15T17:54:37.207Z,57.50
2019-06-15T17:57:04.415Z,57.30
2019-06-15T17:59:32.672Z,57.30
2019-06-15T18:02:00.946Z,57.20
2019-06-15T18:04:29.219Z,57.10
2019-06-15T18:06:57.479Z,57.70
2019-06-15T18:09:25.989Z,57.00
2019-06-15T18:11:56.956Z,57.50
2019-06-15T18:14:26.388Z,57.60
2019-06-15T18:16:54.362Z,58.10
2019-06-15T18:19:22.635Z,58.40
2019-06-15T18:21:50.898Z,58.50
2019-06-15T18:24:19.243Z,57.70
2019-06-15T18:26:47.815Z,57.40
2019-06-15T18:29:16.801Z,57.60
2019-06-15T18:31:45.319Z,57.10
2019-06-15T18:34:16.716Z,56.90
2019-06-15T18:36:43.582Z,56.60
2019-06-15T18:39:11.842Z,56.50
2019-06-15T18:41:40.113Z,56.40
2019-06-15T18:44:08.372Z,56.20
2019-06-15T18:46:36.854Z,56.10
2019-06-15T18:49:06.752Z,56.00
2019-06-15T18:51:35.224Z,56.30
2019-06-15T18:54:03.493Z,56.20
2019-06-15T18:56:31.746Z,55.70
2019-06-15T18:59:00.027Z,55.40
2019-06-15T19:01:28.270Z,55.70
2019-06-15T19:03:56.557Z,54.90
2019-06-15T19:06:26.389Z,55.90
2019-06-15T19:08:57.271Z,55.50
2019-06-15T19:11:27.198Z,55.60
2019-06-15T19:13:56.298Z,53.40
2019-06-15T19:16:24.776Z,52.10
2019-06-15T19:18:53.050Z,54.40
2019-06-15T19:21:21.318Z,54.40
2019-06-15T19:23:49.789Z,53.90
2019-06-15T19:26:18.204Z,54.00
2019-06-15T19:28:46.528Z,54.30
2019-06-15T19:31:14.808Z,53.70
2019-06-15T19:33:43.055Z,54.30
2019-06-15T19:36:11.353Z,54.00
2019-06-15T19:38:39.605Z,54.00
2019-06-15T19:41:07.881Z,54.20
2019-06-15T19:43:36.409Z,53.90
2019-06-15T19:46:06.831Z,53.90
2019-06-15T19:48:36.923Z,52.40
2019-06-15T19:51:05.027Z,53.80
2019-06-15T19:53:36.159Z,54.00
2019-06-15T19:56:03.864Z,53.80
2019-06-15T19:58:32.182Z,54.00
2019-06-15T20:01:00.456Z,54.10
2019-06-15T20:03:28.714Z,54.30
2019-06-15T20:05:57.075Z,54.70
2019-06-15T20:08:26.524Z,54.90
2019-06-15T20:10:56.409Z,55.20
2019-06-15T20:13:24.867Z,55.30
2019-06-15T20:15:56.982Z,56.00
2019-06-15T20:18:26.713Z,55.40
2019-06-15T20:20:56.335Z,55.50
2019-06-15T20:23:26.398Z,55.60
2019-06-15T20:25:55.861Z,55.60
2019-06-15T20:28:27.097Z,55.50
2019-06-15T20:30:56.875Z,55.50
2019-06-15T20:33:26.092Z,55.50
2019-06-15T20:35:54.282Z,55.40
2019-06-15T20:38:22.542Z,55.40
2019-06-15T20:40:50.803Z,55.40
2019-06-15T20:43:19.070Z,55.40
2019-06-15T20:45:48.089Z,55.40
2019-06-15T20:48:16.423Z,55.50
2019-06-15T20:50:46.945Z,56.00
2019-06-15T20:53:16.862Z,55.40
2019-06-15T20:55:46.645Z,55.40
2019-06-15T20:58:17.024Z,55.40
2019-06-15T21:00:47.423Z,55.40
2019-06-15T21:03:16.151Z,55.40
2019-06-15T21:05:47.631Z,55.40
2019-06-15T21:08:16.036Z,55.50
2019-06-15T21:10:46.358Z,55.50
2019-06-15T21:13:16.748Z,55.40
2019-06-15T21:15:47.427Z,55.20
2019-06-15T21:18:16.038Z,55.10
2019-06-15T21:20:46.805Z,54.90
2019-06-15T21:23:16.281Z,54.90
2019-06-15T21:25:46.580Z,54.80
2019-06-15T21:28:16.691Z,54.70
2019-06-15T21:30:46.872Z,54.70
2019-06-15T21:33:14.406Z,54.70
2019-06-15T21:35:49.142Z,54.70
2019-06-15T21:38:13.098Z,54.50
2019-06-15T21:40:41.671Z,54.70
2019-06-15T21:43:09.943Z,54.30
2019-06-15T21:45:41.300Z,54.40
2019-06-15T21:48:08.254Z,54.40
2019-06-15T21:50:36.787Z,54.30
2019-06-15T21:53:06.858Z,54.30
2019-06-15T21:55:36.392Z,54.20
2019-06-15T21:58:07.278Z,54.10
2019-06-15T22:00:47.647Z,54.20
2019-06-15T22:03:16.923Z,53.80
2019-06-15T22:05:47.275Z,53.90
2019-06-15T22:08:17.082Z,54.20
2019-06-15T22:10:45.506Z,54.10
2019-06-15T22:13:15.942Z,54.20
2019-06-15T22:15:43.768Z,54.10
2019-06-15T22:18:12.027Z,54.20
2019-06-15T22:20:40.298Z,54.00
2019-06-15T22:23:08.872Z,54.10
2019-06-15T22:25:37.130Z,54.10
2019-06-15T22:28:06.900Z,53.80
2019-06-15T22:30:36.651Z,53.80
2019-06-15T22:33:06.857Z,53.60
2019-06-15T22:35:36.392Z,53.70
2019-06-15T22:38:07.114Z,53.60
2019-06-15T22:40:36.352Z,53.60
2019-06-15T22:43:06.868Z,53.50
2019-06-15T22:45:34.728Z,53.80
2019-06-15T22:48:03.079Z,53.70
2019-06-15T22:50:31.347Z,53.80
2019-06-15T22:52:59.610Z,53.60
2019-06-15T22:55:27.916Z,53.60
2019-06-15T22:57:56.657Z,53.50
2019-06-15T23:00:26.571Z,53.40
2019-06-15T23:02:56.572Z,53.30
2019-06-15T23:05:26.313Z,53.20
2019-06-15T23:07:55.967Z,53.20
2019-06-15T23:10:24.425Z,53.30
2019-06-15T23:12:52.823Z,53.40
2019-06-15T23:15:21.136Z,53.40
2019-06-15T23:17:49.523Z,53.40
2019-06-15T23:20:17.790Z,53.70
2019-06-15T23:22:46.770Z,53.70
2019-06-15T23:25:16.774Z,53.50
2019-06-15T23:27:46.926Z,53.60
2019-06-15T23:30:16.160Z,53.60
2019-06-15T23:32:46.902Z,53.50
2019-06-15T23:35:16.809Z,53.60
2019-06-15T23:37:46.551Z,53.60
2019-06-15T23:40:22.438Z,53.60
2019-06-15T23:42:50.697Z,53.50
2019-06-15T23:45:19.660Z,53.50
2019-06-15T23:47:48.090Z,53.40
2019-06-15T23:50:17.155Z,53.50
2019-06-15T23:52:46.883Z,53.50
2019-06-15T23:55:16.270Z,53.30
2019-06-15T23:57:46.492Z,53.70
